Time;durP1;ratioP1;P1;durP2;ratioP2;P2;SDS_P1;SDS_P2;PMS_P1;PMS_P2;Temp;Humidity;BMP_temperature;BMP_pressure;BME280_temperature;BME280_humidity;BME280_pressure;Samples;Min_cycle;Max_cycle;Signal;HPM_P1;HPM_P2
2024/03/31 00:01:07;;;;;;;5.57;2.05;;;;;;;;;;4953469;28;20117;-61
2024/03/31 00:03:32;;;;;;;6.82;2.17;;;;;;;;;;4963194;28;20407;-61
2024/03/31 00:05:57;;;;;;;7.28;2.20;;;;;;;;;;4956748;28;20039;-62
2024/03/31 00:08:23;;;;;;;6.65;2.60;;;;;;;;;;4946332;28;20554;-61
2024/03/31 00:10:48;;;;;;;7.65;2.30;;;;;;;;;;4947051;28;20529;-61
2024/03/31 00:13:13;;;;;;;5.85;2.35;;;;;;;;;;4969078;28;20039;-62
2024/03/31 00:15:39;;;;;;;7.13;2.30;;;;;;;;;;4966017;28;20093;-61
2024/03/31 00:18:04;;;;;;;6.78;2.42;;;;;;;;;;4946208;28;20804;-62
2024/03/31 00:20:29;;;;;;;7.93;2.22;;;;;;;;;;4946971;28;20039;-61
2024/03/31 00:22:55;;;;;;;6.38;2.05;;;;;;;;;;4969185;28;20148;-62
2024/03/31 00:25:20;;;;;;;4.82;2.47;;;;;;;;;;4965845;28;20039;-62
2024/03/31 00:27:45;;;;;;;7.45;2.13;;;;;;;;;;4948167;28;20042;-62
2024/03/31 00:30:11;;;;;;;7.15;2.30;;;;;;;;;;4944353;28;20032;-61
2024/03/31 00:32:36;;;;;;;7.70;2.42;;;;;;;;;;4956369;28;20161;-60
2024/03/31 00:35:01;;;;;;;7.18;2.20;;;;;;;;;;4960446;28;20037;-61
2024/03/31 00:37:28;;;;;;;7.43;2.55;;;;;;;;;;4969124;28;20035;-62
2024/03/31 00:39:53;;;;;;;6.22;2.03;;;;;;;;;;4980484;28;20102;-59
2024/03/31 00:42:19;;;;;;;7.07;2.25;;;;;;;;;;4963585;28;20975;-61
2024/03/31 00:44:45;;;;;;;5.55;2.30;;;;;;;;;;4950497;28;20067;-61
2024/03/31 00:47:10;;;;;;;6.70;2.30;;;;;;;;;;4952204;28;20039;-60
2024/03/31 00:49:35;;;;;;;5.55;2.20;;;;;;;;;;4950361;28;20378;-60
2024/03/31 00:52:01;;;;;;;5.97;2.63;;;;;;;;;;4948135;28;20645;-60
2024/03/31 00:54:26;;;;;;;4.55;2.13;;;;;;;;;;4952735;28;20074;-60
2024/03/31 00:56:51;;;;;;;9.75;2.75;;;;;;;;;;4969259;28;20034;-61
2024/03/31 00:59:16;;;;;;;6.28;2.53;;;;;;;;;;4969449;28;20038;-60
2024/03/31 01:01:42;;;;;;;5.38;2.00;;;;;;;;;;4958472;28;20039;-60
2024/03/31 01:04:07;;;;;;;9.38;2.42;;;;;;;;;;4965580;28;20114;-61
2024/03/31 01:06:32;;;;;;;9.13;2.58;;;;;;;;;;4959084;28;20043;-62
2024/03/31 01:08:58;;;;;;;6.40;2.30;;;;;;;;;;4949994;28;20038;-61
2024/03/31 01:11:23;;;;;;;5.32;2.20;;;;;;;;;;4964712;28;20040;-61
2024/03/31 01:13:48;;;;;;;7.53;1.88;;;;;;;;;;4960856;28;20069;-61
2024/03/31 01:16:14;;;;;;;9.77;2.50;;;;;;;;;;4966923;28;20103;-61
2024/03/31 01:18:39;;;;;;;6.53;2.22;;;;;;;;;;4965482;28;20038;-62
2024/03/31 01:21:04;;;;;;;5.13;2.00;;;;;;;;;;4956179;28;20065;-59
2024/03/31 01:23:38;;;;;;;5.65;2.33;;;;;;;;;;4998543;28;20038;-61
2024/03/31 01:26:03;;;;;;;5.43;2.30;;;;;;;;;;4953192;28;20105;-60
2024/03/31 01:28:29;;;;;;;8.38;1.95;;;;;;;;;;4948921;28;20035;-62
2024/03/31 01:30:54;;;;;;;4.85;1.98;;;;;;;;;;4957496;28;20202;-61
2024/03/31 01:33:19;;;;;;;3.88;2.17;;;;;;;;;;4967418;28;20041;-60
2024/03/31 01:35:45;;;;;;;6.03;2.40;;;;;;;;;;4968819;28;20061;-60
2024/03/31 01:38:10;;;;;;;5.82;2.05;;;;;;;;;;4968972;28;20035;-61
2024/03/31 01:40:36;;;;;;;9.60;2.45;;;;;;;;;;4964407;28;20042;-60
2024/03/31 01:43:01;;;;;;;5.68;1.98;;;;;;;;;;4960054;28;20419;-60
2024/03/31 01:45:26;;;;;;;5.68;2.25;;;;;;;;;;4949619;28;20039;-60
2024/03/31 01:47:51;;;;;;;3.70;1.77;;;;;;;;;;4952291;28;20057;-61
2024/03/31 01:50:17;;;;;;;4.35;1.70;;;;;;;;;;4966090;28;20046;-60
2024/03/31 01:52:42;;;;;;;5.60;2.00;;;;;;;;;;4966711;28;20058;-60
2024/03/31 01:55:07;;;;;;;6.35;2.30;;;;;;;;;;4970942;28;20062;-61
2024/03/31 01:57:33;;;;;;;6.18;2.10;;;;;;;;;;4959018;28;20198;-60
2024/03/31 01:59:58;;;;;;;7.53;2.20;;;;;;;;;;4965080;28;20665;-60
2024/03/31 02:02:23;;;;;;;3.90;1.75;;;;;;;;;;4958594;28;20038;-60
2024/03/31 02:04:49;;;;;;;5.85;2.28;;;;;;;;;;4956704;28;20420;-60
2024/03/31 02:07:14;;;;;;;6.40;1.88;;;;;;;;;;4961802;28;20173;-61
2024/03/31 02:09:39;;;;;;;6.25;2.00;;;;;;;;;;4954063;28;20039;-61
2024/03/31 02:12:05;;;;;;;8.05;2.17;;;;;;;;;;4954505;28;20141;-61
2024/03/31 02:14:32;;;;;;;7.65;2.22;;;;;;;;;;4957192;28;20046;-60
2024/03/31 02:16:57;;;;;;;5.05;1.92;;;;;;;;;;4969831;28;20046;-61
2024/03/31 02:19:23;;;;;;;10.10;2.20;;;;;;;;;;4968361;28;20427;-61
2024/03/31 02:21:48;;;;;;;5.68;2.08;;;;;;;;;;4966209;28;20042;-60
2024/03/31 02:24:14;;;;;;;4.80;1.92;;;;;;;;;;4965783;28;20066;-61
2024/03/31 02:26:39;;;;;;;7.65;2.15;;;;;;;;;;4964528;28;20039;-61
2024/03/31 02:29:04;;;;;;;5.07;1.95;;;;;;;;;;4952468;28;20043;-60
2024/03/31 02:31:30;;;;;;;5.88;1.95;;;;;;;;;;4949243;28;20074;-60
2024/03/31 02:33:55;;;;;;;8.52;2.10;;;;;;;;;;4952458;28;20122;-62
2024/03/31 02:36:20;;;;;;;6.45;2.20;;;;;;;;;;4949883;28;20047;-60
2024/03/31 02:38:45;;;;;;;7.10;2.22;;;;;;;;;;4952938;28;20038;-61
2024/03/31 02:41:11;;;;;;;7.35;2.58;;;;;;;;;;4967234;28;20400;-62
2024/03/31 02:43:36;;;;;;;5.13;2.35;;;;;;;;;;4969104;28;20464;-61
2024/03/31 02:46:01;;;;;;;9.73;2.70;;;;;;;;;;4948358;28;20058;-61
2024/03/31 02:48:27;;;;;;;8.80;2.25;;;;;;;;;;4949456;28;20046;-61
2024/03/31 02:50:52;;;;;;;6.75;2.17;;;;;;;;;;4949482;28;20035;-60
2024/03/31 02:53:17;;;;;;;8.10;2.30;;;;;;;;;;4950319;28;20047;-60
2024/03/31 02:55:43;;;;;;;6.53;1.90;;;;;;;;;;4967361;28;20038;-60
2024/03/31 02:58:08;;;;;;;6.15;2.00;;;;;;;;;;4954750;28;20465;-62
2024/03/31 03:00:33;;;;;;;4.90;1.83;;;;;;;;;;4949665;28;20562;-61
2024/03/31 03:02:59;;;;;;;7.35;2.10;;;;;;;;;;4950603;28;20058;-60
2024/03/31 03:05:24;;;;;;;8.95;2.13;;;;;;;;;;4948018;28;20039;-61
2024/03/31 03:07:49;;;;;;;5.82;2.20;;;;;;;;;;4951800;28;20039;-60
2024/03/31 03:10:15;;;;;;;7.90;2.10;;;;;;;;;;4963791;28;20035;-61
2024/03/31 03:12:40;;;;;;;5.43;2.08;;;;;;;;;;4950760;28;20039;-61
2024/03/31 03:15:05;;;;;;;5.18;1.77;;;;;;;;;;4967074;28;20050;-61
2024/03/31 03:17:31;;;;;;;5.90;2.10;;;;;;;;;;4966643;28;20034;-60
2024/03/31 03:19:56;;;;;;;10.07;2.45;;;;;;;;;;4953991;28;20439;-60
2024/03/31 03:22:21;;;;;;;6.00;2.10;;;;;;;;;;4950747;28;20046;-61
2024/03/31 03:24:48;;;;;;;7.75;2.20;;;;;;;;;;4946710;28;20466;-61
2024/03/31 03:27:13;;;;;;;7.10;1.80;;;;;;;;;;4966250;28;20039;-61
2024/03/31 03:29:39;;;;;;;6.50;2.33;;;;;;;;;;4956238;28;20042;-60
2024/03/31 03:32:04;;;;;;;6.32;2.30;;;;;;;;;;4972371;28;20482;-61
2024/03/31 03:34:30;;;;;;;7.05;1.92;;;;;;;;;;4966548;28;20061;-62
2024/03/31 03:36:55;;;;;;;6.97;2.17;;;;;;;;;;4966977;28;20035;-60
2024/03/31 03:39:20;;;;;;;6.30;2.63;;;;;;;;;;4966015;28;20053;-62
2024/03/31 03:41:46;;;;;;;6.78;2.20;;;;;;;;;;4949620;28;20475;-61
2024/03/31 03:44:11;;;;;;;5.55;2.03;;;;;;;;;;4946313;28;20043;-60
2024/03/31 03:46:36;;;;;;;6.60;2.20;;;;;;;;;;4935345;28;20082;-61
2024/03/31 03:49:02;;;;;;;5.47;2.15;;;;;;;;;;4948606;28;20071;-61
2024/03/31 03:51:27;;;;;;;6.93;2.42;;;;;;;;;;4957420;28;20121;-60
2024/03/31 03:53:53;;;;;;;6.72;1.92;;;;;;;;;;4952465;28;20027;-60
2024/03/31 03:56:18;;;;;;;6.55;2.47;;;;;;;;;;4965147;28;20050;-59
2024/03/31 03:58:45;;;;;;;8.27;2.45;;;;;;;;;;4946512;28;20027;-61
2024/03/31 04:01:10;;;;;;;4.70;2.05;;;;;;;;;;4955578;28;20047;-61
2024/03/31 04:03:35;;;;;;;10.88;2.45;;;;;;;;;;4965533;28;20042;-61
2024/03/31 04:06:01;;;;;;;5.03;2.30;;;;;;;;;;4955435;28;20563;-61
2024/03/31 04:08:26;;;;;;;5.70;1.90;;;;;;;;;;4948109;28;20050;-61
2024/03/31 04:10:51;;;;;;;7.40;3.13;;;;;;;;;;4947609;28;20139;-61
2024/03/31 04:13:18;;;;;;;7.43;2.22;;;;;;;;;;4946920;28;20130;-61
2024/03/31 04:15:43;;;;;;;7.35;2.42;;;;;;;;;;4947841;28;20587;-60
2024/03/31 04:18:08;;;;;;;5.97;2.08;;;;;;;;;;4946858;28;20547;-63
2024/03/31 04:20:40;;;;;;;7.45;2.35;;;;;;;;;;4948450;28;20050;-61
2024/03/31 04:23:05;;;;;;;6.50;2.05;;;;;;;;;;4956627;28;20379;-60
2024/03/31 04:25:31;;;;;;;6.38;1.85;;;;;;;;;;4963643;28;20156;-60
2024/03/31 04:27:56;;;;;;;7.68;2.42;;;;;;;;;;4953191;28;20027;-61
2024/03/31 04:30:21;;;;;;;10.60;2.35;;;;;;;;;;4945932;28;20046;-61
2024/03/31 04:32:47;;;;;;;8.90;2.45;;;;;;;;;;4951128;28;20034;-60
2024/03/31 04:35:12;;;;;;;7.32;2.30;;;;;;;;;;4980923;28;20122;-60
2024/03/31 04:37:38;;;;;;;7.72;2.72;;;;;;;;;;4966298;28;20054;-65
2024/03/31 04:40:04;;;;;;;7.57;2.20;;;;;;;;;;4963880;28;20161;-61
2024/03/31 04:42:29;;;;;;;7.03;2.20;;;;;;;;;;4958984;28;20036;-60
2024/03/31 04:44:54;;;;;;;7.50;2.28;;;;;;;;;;4946746;28;20582;-61
2024/03/31 04:47:21;;;;;;;8.05;2.17;;;;;;;;;;4947061;28;20066;-60
2024/03/31 04:49:46;;;;;;;4.97;2.03;;;;;;;;;;4946587;28;20035;-60
2024/03/31 04:52:12;;;;;;;5.38;2.17;;;;;;;;;;4962521;28;20817;-61
2024/03/31 04:54:37;;;;;;;7.53;2.22;;;;;;;;;;4960965;28;20050;-60
2024/03/31 04:57:03;;;;;;;7.85;2.50;;;;;;;;;;4967066;28;20035;-60
2024/03/31 04:59:28;;;;;;;7.40;2.53;;;;;;;;;;4966828;28;20035;-60
2024/03/31 05:01:53;;;;;;;7.65;2.30;;;;;;;;;;4954266;28;20031;-59
2024/03/31 05:04:19;;;;;;;9.27;2.35;;;;;;;;;;4957272;28;20167;-60
2024/03/31 05:06:45;;;;;;;9.20;2.60;;;;;;;;;;4961200;28;20428;-63
2024/03/31 05:09:10;;;;;;;9.68;2.38;;;;;;;;;;4955993;28;20130;-61
2024/03/31 05:11:36;;;;;;;7.45;2.20;;;;;;;;;;4948095;28;20220;-60
2024/03/31 05:14:01;;;;;;;11.20;2.60;;;;;;;;;;4966345;28;20035;-60
2024/03/31 05:16:26;;;;;;;6.20;2.17;;;;;;;;;;4949802;28;20035;-60
2024/03/31 05:18:54;;;;;;;9.98;2.33;;;;;;;;;;4966576;28;20049;-61
2024/03/31 05:21:19;;;;;;;7.15;2.22;;;;;;;;;;4968649;28;20414;-61
2024/03/31 05:23:46;;;;;;;5.78;2.13;;;;;;;;;;4956956;28;20023;-62
2024/03/31 05:26:12;;;;;;;5.30;2.30;;;;;;;;;;4958954;28;20047;-62
2024/03/31 05:28:37;;;;;;;4.78;1.73;;;;;;;;;;4960632;28;20057;-61
2024/03/31 05:31:03;;;;;;;6.15;2.28;;;;;;;;;;4964080;28;20122;-62
2024/03/31 05:33:29;;;;;;;4.25;2.00;;;;;;;;;;4943783;28;20078;-62
2024/03/31 05:35:54;;;;;;;7.07;2.00;;;;;;;;;;4944885;28;20043;-63
2024/03/31 05:38:19;;;;;;;5.90;2.20;;;;;;;;;;4949949;28;20023;-61
2024/03/31 05:40:45;;;;;;;5.03;2.10;;;;;;;;;;4962387;28;20034;-62
2024/03/31 05:43:10;;;;;;;6.05;2.08;;;;;;;;;;4963281;28;20035;-61
2024/03/31 05:45:37;;;;;;;5.93;2.00;;;;;;;;;;4967135;28;20027;-61
2024/03/31 05:48:02;;;;;;;4.40;1.90;;;;;;;;;;4967070;28;20049;-61
2024/03/31 05:50:28;;;;;;;5.03;1.98;;;;;;;;;;4964725;28;20137;-61
2024/03/31 05:52:53;;;;;;;5.88;2.30;;;;;;;;;;4956495;28;20023;-62
2024/03/31 05:55:18;;;;;;;5.90;1.70;;;;;;;;;;4962839;28;20019;-63
2024/03/31 05:57:44;;;;;;;6.82;2.22;;;;;;;;;;4965535;28;20018;-60
2024/03/31 06:00:09;;;;;;;5.43;1.80;;;;;;;;;;4960311;28;20464;-62
2024/03/31 06:02:34;;;;;;;6.70;2.20;;;;;;;;;;4947154;28;20122;-61
2024/03/31 06:05:00;;;;;;;4.78;2.10;;;;;;;;;;4966492;28;20026;-62
2024/03/31 06:07:25;;;;;;;6.78;1.90;;;;;;;;;;4956792;28;20495;-61
2024/03/31 06:09:51;;;;;;;4.35;1.98;;;;;;;;;;4953632;28;20066;-61
2024/03/31 06:12:16;;;;;;;6.10;2.22;;;;;;;;;;4953236;28;21584;-62
2024/03/31 06:14:41;;;;;;;7.00;2.13;;;;;;;;;;4953741;28;20165;-61
2024/03/31 06:17:07;;;;;;;4.78;2.00;;;;;;;;;;4953465;28;20038;-64
2024/03/31 06:19:32;;;;;;;4.32;1.77;;;;;;;;;;4936346;28;20027;-65
2024/03/31 06:21:57;;;;;;;5.15;2.30;;;;;;;;;;4934578;28;20470;-63
2024/03/31 06:24:22;;;;;;;5.95;2.20;;;;;;;;;;4933514;28;20027;-63
2024/03/31 06:26:48;;;;;;;7.20;2.30;;;;;;;;;;4966248;28;20053;-64
2024/03/31 06:29:13;;;;;;;5.63;2.17;;;;;;;;;;4934599;28;20015;-62
2024/03/31 06:31:39;;;;;;;4.70;1.92;;;;;;;;;;4947243;28;20122;-62
2024/03/31 06:34:04;;;;;;;5.72;1.73;;;;;;;;;;4935873;28;20030;-61
2024/03/31 06:36:29;;;;;;;4.82;2.00;;;;;;;;;;4939673;28;20031;-61
2024/03/31 06:38:55;;;;;;;3.88;1.85;;;;;;;;;;4958305;28;20086;-62
2024/03/31 06:41:20;;;;;;;4.95;2.05;;;;;;;;;;4938880;28;20027;-62
2024/03/31 06:43:45;;;;;;;7.03;2.13;;;;;;;;;;4935699;28;20499;-61
2024/03/31 06:46:11;;;;;;;4.63;1.77;;;;;;;;;;4949185;28;20027;-61
2024/03/31 06:48:36;;;;;;;7.18;2.20;;;;;;;;;;4953440;28;20116;-60
2024/03/31 06:51:01;;;;;;;8.05;2.20;;;;;;;;;;4935353;28;22145;-62
2024/03/31 06:53:27;;;;;;;8.55;2.58;;;;;;;;;;4932367;28;20027;-62
2024/03/31 06:55:52;;;;;;;6.15;2.22;;;;;;;;;;4934796;28;20031;-62
2024/03/31 06:58:17;;;;;;;5.93;2.03;;;;;;;;;;4942550;28;20050;-63
2024/03/31 07:00:43;;;;;;;5.05;2.13;;;;;;;;;;4938527;28;20545;-61
2024/03/31 07:03:08;;;;;;;4.50;1.85;;;;;;;;;;4935090;28;20065;-63
2024/03/31 07:05:33;;;;;;;5.60;2.08;;;;;;;;;;4938545;28;21646;-62
2024/03/31 07:07:58;;;;;;;6.72;2.20;;;;;;;;;;4935481;28;20497;-64
2024/03/31 07:10:24;;;;;;;5.63;2.00;;;;;;;;;;4947589;28;20094;-62
2024/03/31 07:12:49;;;;;;;6.07;2.38;;;;;;;;;;4940750;28;20539;-62
2024/03/31 07:15:15;;;;;;;6.05;2.03;;;;;;;;;;4958304;28;20723;-61
2024/03/31 07:17:43;;;;;;;5.57;2.20;;;;;;;;;;4956007;28;20073;-62
2024/03/31 07:20:09;;;;;;;8.73;2.22;;;;;;;;;;4935155;28;20043;-60
2024/03/31 07:22:34;;;;;;;7.07;2.20;;;;;;;;;;4932347;28;20098;-63
2024/03/31 07:24:59;;;;;;;6.97;2.00;;;;;;;;;;4932155;28;20047;-62
2024/03/31 07:27:25;;;;;;;5.63;2.17;;;;;;;;;;4938039;28;20042;-63
2024/03/31 07:29:50;;;;;;;4.10;1.83;;;;;;;;;;4955180;28;20087;-62
2024/03/31 07:32:15;;;;;;;4.78;2.28;;;;;;;;;;4954146;28;20047;-62
2024/03/31 07:34:40;;;;;;;5.05;1.98;;;;;;;;;;4943598;28;20105;-61
2024/03/31 07:37:06;;;;;;;4.65;1.98;;;;;;;;;;4953364;28;20039;-62
2024/03/31 07:39:31;;;;;;;6.45;2.35;;;;;;;;;;4939573;28;20067;-64
2024/03/31 07:41:56;;;;;;;5.10;2.05;;;;;;;;;;4935068;28;20039;-62
2024/03/31 07:44:22;;;;;;;7.20;2.33;;;;;;;;;;4933102;28;20098;-61
2024/03/31 07:46:47;;;;;;;5.10;2.00;;;;;;;;;;4942661;28;20035;-60
2024/03/31 07:49:12;;;;;;;10.52;2.42;;;;;;;;;;4957725;28;20027;-62
2024/03/31 07:51:38;;;;;;;7.13;2.20;;;;;;;;;;4949916;28;20045;-62
2024/03/31 07:54:03;;;;;;;7.35;2.30;;;;;;;;;;4953454;28;20171;-61
2024/03/31 07:56:28;;;;;;;6.35;1.98;;;;;;;;;;4956530;28;20038;-62
2024/03/31 07:58:54;;;;;;;8.13;2.45;;;;;;;;;;4954823;28;20036;-61
2024/03/31 08:01:19;;;;;;;7.15;2.47;;;;;;;;;;4953700;28;20118;-62
2024/03/31 08:03:44;;;;;;;6.28;2.13;;;;;;;;;;4954782;28;20034;-62
2024/03/31 08:06:10;;;;;;;7.28;2.55;;;;;;;;;;4954445;28;20039;-62
2024/03/31 08:08:35;;;;;;;5.07;2.15;;;;;;;;;;4954988;28;20116;-66
2024/03/31 08:11:00;;;;;;;8.38;3.00;;;;;;;;;;4951042;28;20106;-64
2024/03/31 08:13:26;;;;;;;10.95;3.42;;;;;;;;;;4952443;28;20134;-62
2024/03/31 08:15:51;;;;;;;9.23;3.13;;;;;;;;;;4951117;28;20058;-63
2024/03/31 08:18:16;;;;;;;6.78;2.38;;;;;;;;;;4957856;28;20550;-63
2024/03/31 08:20:42;;;;;;;9.10;2.75;;;;;;;;;;4960960;28;20123;-63
2024/03/31 08:23:07;;;;;;;10.05;2.72;;;;;;;;;;4948708;28;20030;-64
2024/03/31 08:25:37;;;;;;;8.25;2.78;;;;;;;;;;4949175;28;20027;-64
2024/03/31 08:28:02;;;;;;;9.85;2.90;;;;;;;;;;4946251;28;20038;-64
2024/03/31 08:30:27;;;;;;;10.75;2.63;;;;;;;;;;4932617;28;20035;-63
2024/03/31 08:32:53;;;;;;;8.20;2.70;;;;;;;;;;4932547;28;20498;-62
2024/03/31 08:35:18;;;;;;;8.40;2.60;;;;;;;;;;4932290;28;20043;-61
2024/03/31 08:37:45;;;;;;;10.07;2.85;;;;;;;;;;4932937;28;20416;-63
2024/03/31 08:40:11;;;;;;;8.52;2.13;;;;;;;;;;4938552;28;22066;-65
2024/03/31 08:42:43;;;;;;;9.00;2.40;;;;;;;;;;4951347;28;20051;-63
2024/03/31 08:45:10;;;;;;;7.07;2.03;;;;;;;;;;4951609;28;20567;-65
2024/03/31 08:47:35;;;;;;;6.00;2.00;;;;;;;;;;4950697;28;20124;-64
2024/03/31 08:50:00;;;;;;;5.00;1.98;;;;;;;;;;4952174;28;20050;-63
2024/03/31 08:52:26;;;;;;;5.78;2.25;;;;;;;;;;4949790;28;20055;-65
2024/03/31 08:54:51;;;;;;;5.35;1.85;;;;;;;;;;4947426;28;20158;-65
2024/03/31 08:57:17;;;;;;;7.28;1.85;;;;;;;;;;4952217;28;20111;-64
2024/03/31 08:59:42;;;;;;;7.03;1.95;;;;;;;;;;4943882;28;20136;-63
2024/03/31 09:02:09;;;;;;;8.40;2.08;;;;;;;;;;4956903;28;20042;-63
2024/03/31 09:04:34;;;;;;;8.18;2.30;;;;;;;;;;4955024;28;20028;-64
2024/03/31 09:06:59;;;;;;;7.05;1.90;;;;;;;;;;4955988;28;20043;-64
2024/03/31 09:09:25;;;;;;;7.95;2.00;;;;;;;;;;4963332;28;20142;-63
2024/03/31 09:11:50;;;;;;;6.75;1.98;;;;;;;;;;4957482;28;20039;-65
2024/03/31 09:14:16;;;;;;;6.15;1.70;;;;;;;;;;4956918;28;20140;-63
2024/03/31 09:16:46;;;;;;;8.18;2.20;;;;;;;;;;4954499;28;20039;-63
2024/03/31 09:19:12;;;;;;;8.00;2.03;;;;;;;;;;4955828;28;20530;-63
2024/03/31 09:21:46;;;;;;;8.95;2.35;;;;;;;;;;4951737;28;20032;-63
2024/03/31 09:24:11;;;;;;;6.88;2.30;;;;;;;;;;4945000;28;20098;-61
2024/03/31 09:26:37;;;;;;;5.53;2.30;;;;;;;;;;4958086;28;20043;-61
2024/03/31 09:29:02;;;;;;;10.27;2.97;;;;;;;;;;4975705;28;20074;-62
2024/03/31 09:31:28;;;;;;;8.35;2.53;;;;;;;;;;4956514;28;20038;-62
2024/03/31 09:33:53;;;;;;;5.93;2.38;;;;;;;;;;4955864;28;20089;-63
2024/03/31 09:36:19;;;;;;;7.22;2.78;;;;;;;;;;4954929;28;20054;-64
2024/03/31 09:38:44;;;;;;;7.45;2.15;;;;;;;;;;4955404;28;20525;-63
2024/03/31 09:41:09;;;;;;;8.48;1.98;;;;;;;;;;4955913;28;20059;-63
2024/03/31 09:43:34;;;;;;;9.13;2.25;;;;;;;;;;4956180;28;20047;-63
2024/03/31 09:46:00;;;;;;;10.05;1.98;;;;;;;;;;4956038;28;20094;-62
2024/03/31 09:48:25;;;;;;;12.13;2.13;;;;;;;;;;4955230;28;20580;-61
2024/03/31 09:51:04;;;;;;;7.95;2.05;;;;;;;;;;4944352;28;20185;-60
2024/03/31 09:53:29;;;;;;;7.03;2.17;;;;;;;;;;4942361;28;20593;-60
2024/03/31 09:56:04;;;;;;;5.75;2.05;;;;;;;;;;4935853;28;20032;-60
2024/03/31 09:58:33;;;;;;;9.45;2.42;;;;;;;;;;4952121;28;20122;-66
2024/03/31 10:00:58;;;;;;;6.30;2.00;;;;;;;;;;4950421;28;20035;-61
2024/03/31 10:03:27;;;;;;;9.38;2.13;;;;;;;;;;4938126;28;20057;-61
2024/03/31 10:05:54;;;;;;;7.00;2.00;;;;;;;;;;4948767;28;20031;-63
2024/03/31 10:08:19;;;;;;;9.55;1.95;;;;;;;;;;4936955;28;20046;-62
2024/03/31 10:10:45;;;;;;;8.60;2.10;;;;;;;;;;4952058;28;20062;-63
2024/03/31 10:13:10;;;;;;;8.80;2.47;;;;;;;;;;4952310;28;20043;-62
2024/03/31 10:15:36;;;;;;;7.25;2.28;;;;;;;;;;4953663;28;20041;-62
2024/03/31 10:18:05;;;;;;;6.53;2.30;;;;;;;;;;4935409;28;20157;-60
2024/03/31 10:20:31;;;;;;;7.57;1.77;;;;;;;;;;4934621;28;20101;-61
2024/03/31 10:22:59;;;;;;;5.07;1.90;;;;;;;;;;4949403;28;20052;-61
2024/03/31 10:25:25;;;;;;;7.43;1.73;;;;;;;;;;4948785;28;20043;-61
2024/03/31 10:27:50;;;;;;;3.78;1.50;;;;;;;;;;4937181;28;20782;-60
2024/03/31 10:30:16;;;;;;;6.82;1.75;;;;;;;;;;4950550;28;20134;-60
2024/03/31 10:32:41;;;;;;;8.00;2.22;;;;;;;;;;4957080;28;20076;-62
2024/03/31 10:35:06;;;;;;;7.85;2.13;;;;;;;;;;4960736;28;20135;-61
2024/03/31 10:37:32;;;;;;;7.28;2.30;;;;;;;;;;4957013;28;20119;-60
2024/03/31 10:40:00;;;;;;;6.13;2.00;;;;;;;;;;4953896;28;20117;-61
2024/03/31 10:42:27;;;;;;;4.90;2.05;;;;;;;;;;4938598;28;20039;-60
2024/03/31 10:44:52;;;;;;;6.55;1.75;;;;;;;;;;4953405;28;20034;-64
2024/03/31 10:47:18;;;;;;;3.40;1.73;;;;;;;;;;4954887;28;20035;-61
2024/03/31 10:49:44;;;;;;;8.40;2.22;;;;;;;;;;4963473;28;20043;-62
2024/03/31 10:52:13;;;;;;;8.70;2.33;;;;;;;;;;4954915;28;20768;-57
2024/03/31 10:54:39;;;;;;;6.78;2.10;;;;;;;;;;4950325;28;20038;-57
2024/03/31 10:57:05;;;;;;;6.00;1.70;;;;;;;;;;4952146;28;20121;-57
2024/03/31 10:59:30;;;;;;;7.25;2.00;;;;;;;;;;4953346;28;20069;-58
2024/03/31 11:02:14;;;;;;;7.78;2.33;;;;;;;;;;4955686;28;20066;-57
2024/03/31 11:04:43;;;;;;;5.88;2.20;;;;;;;;;;4951728;28;20057;-57
2024/03/31 11:07:11;;;;;;;5.00;2.10;;;;;;;;;;4981237;28;20050;-58
2024/03/31 11:09:37;;;;;;;6.70;2.30;;;;;;;;;;4952661;28;20035;-57
2024/03/31 11:12:02;;;;;;;5.30;1.80;;;;;;;;;;4952533;28;20097;-58
2024/03/31 11:14:28;;;;;;;7.13;2.55;;;;;;;;;;4950849;28;20019;-60
2024/03/31 11:16:53;;;;;;;6.95;2.83;;;;;;;;;;4950115;28;20038;-61
2024/03/31 11:19:21;;;;;;;7.75;2.35;;;;;;;;;;4951435;28;20130;-58
2024/03/31 11:21:46;;;;;;;7.90;2.05;;;;;;;;;;4953307;28;20030;-58
2024/03/31 11:24:13;;;;;;;5.25;1.80;;;;;;;;;;4950804;28;20027;-59
2024/03/31 11:26:38;;;;;;;8.40;2.25;;;;;;;;;;4945954;28;20476;-58
2024/03/31 11:29:03;;;;;;;5.95;2.30;;;;;;;;;;4952418;28;20059;-58
2024/03/31 11:31:29;;;;;;;10.35;2.28;;;;;;;;;;4950473;28;20138;-58
2024/03/31 11:33:54;;;;;;;8.82;2.30;;;;;;;;;;4952214;28;20056;-58
2024/03/31 11:36:20;;;;;;;6.07;2.30;;;;;;;;;;4950320;28;20506;-59
2024/03/31 11:38:46;;;;;;;6.70;2.08;;;;;;;;;;4952331;28;20043;-59
2024/03/31 11:41:11;;;;;;;7.90;2.63;;;;;;;;;;4952315;28;20049;-58
2024/03/31 11:43:36;;;;;;;5.72;2.10;;;;;;;;;;4947859;28;20069;-58
2024/03/31 11:46:02;;;;;;;8.57;2.17;;;;;;;;;;4933662;28;20063;-59
2024/03/31 11:48:27;;;;;;;5.93;1.90;;;;;;;;;;4936001;28;20166;-57
2024/03/31 11:50:53;;;;;;;5.95;2.20;;;;;;;;;;4948144;28;20081;-58
2024/03/31 11:53:18;;;;;;;7.05;2.13;;;;;;;;;;4928932;28;20130;-58
2024/03/31 11:55:44;;;;;;;9.02;2.28;;;;;;;;;;4932121;28;20043;-57
2024/03/31 11:58:09;;;;;;;5.40;2.10;;;;;;;;;;4932994;28;20043;-58
2024/03/31 12:00:34;;;;;;;8.07;2.60;;;;;;;;;;4933227;28;20042;-57
2024/03/31 12:03:06;;;;;;;7.03;1.98;;;;;;;;;;4933337;28;20527;-57
2024/03/31 12:05:31;;;;;;;11.02;2.60;;;;;;;;;;4937187;28;20042;-57
2024/03/31 12:07:56;;;;;;;9.68;2.50;;;;;;;;;;4952439;28;20038;-57
2024/03/31 12:10:22;;;;;;;9.93;2.63;;;;;;;;;;4950830;28;20050;-61
2024/03/31 12:12:47;;;;;;;9.60;2.60;;;;;;;;;;4966373;28;20491;-57
2024/03/31 12:15:12;;;;;;;11.57;2.58;;;;;;;;;;4954758;28;20043;-57
2024/03/31 12:17:38;;;;;;;11.40;2.70;;;;;;;;;;4957333;28;20057;-55
2024/03/31 12:20:09;;;;;;;8.68;2.42;;;;;;;;;;4951048;28;20685;-59
2024/03/31 12:22:36;;;;;;;8.95;3.00;;;;;;;;;;4952086;28;20039;-59
2024/03/31 12:25:01;;;;;;;13.75;3.20;;;;;;;;;;4951313;28;20034;-59
2024/03/31 12:27:26;;;;;;;11.00;2.70;;;;;;;;;;4949075;28;20105;-61
2024/03/31 12:29:51;;;;;;;8.02;2.25;;;;;;;;;;4947154;28;20077;-63
2024/03/31 12:32:17;;;;;;;11.77;3.05;;;;;;;;;;4933109;28;20111;-60
2024/03/31 12:34:43;;;;;;;11.43;2.70;;;;;;;;;;4932437;28;20040;-58
2024/03/31 12:37:08;;;;;;;13.85;2.78;;;;;;;;;;4932865;28;20047;-57
2024/03/31 12:39:33;;;;;;;15.63;3.20;;;;;;;;;;4934296;28;20439;-58
2024/03/31 12:41:59;;;;;;;14.85;3.00;;;;;;;;;;4949758;28;20404;-61
2024/03/31 12:44:24;;;;;;;13.60;3.20;;;;;;;;;;4935804;28;20122;-61
2024/03/31 12:46:49;;;;;;;15.13;3.53;;;;;;;;;;4931887;28;20487;-58
2024/03/31 12:49:15;;;;;;;15.50;3.83;;;;;;;;;;4936601;28;20535;-58
2024/03/31 12:51:40;;;;;;;14.63;3.10;;;;;;;;;;4945010;28;20040;-63
2024/03/31 12:54:05;;;;;;;16.58;3.25;;;;;;;;;;4928320;28;20137;-59
2024/03/31 12:56:31;;;;;;;13.95;3.63;;;;;;;;;;4935150;28;20047;-60
2024/03/31 12:58:56;;;;;;;17.00;2.78;;;;;;;;;;4952667;28;20031;-61
2024/03/31 13:01:21;;;;;;;17.35;3.22;;;;;;;;;;4936864;28;20047;-62
2024/03/31 13:03:47;;;;;;;15.13;3.53;;;;;;;;;;4937025;28;20098;-58
2024/03/31 13:06:12;;;;;;;12.50;3.10;;;;;;;;;;4936196;28;20126;-57
2024/03/31 13:08:38;;;;;;;14.88;3.58;;;;;;;;;;4945127;28;20152;-59
2024/03/31 13:11:04;;;;;;;21.02;3.95;;;;;;;;;;4946377;28;20472;-61
2024/03/31 13:13:29;;;;;;;17.73;3.67;;;;;;;;;;4961620;28;20138;-62
2024/03/31 13:15:55;;;;;;;28.90;4.05;;;;;;;;;;4952961;28;20095;-60
2024/03/31 13:18:20;;;;;;;21.02;4.72;;;;;;;;;;4958933;28;20118;-61
2024/03/31 13:20:45;;;;;;;21.55;4.85;;;;;;;;;;4957342;28;20038;-58
2024/03/31 13:23:10;;;;;;;18.50;3.75;;;;;;;;;;4953855;28;20503;-59
2024/03/31 13:25:36;;;;;;;21.85;4.38;;;;;;;;;;4965017;28;20030;-58
2024/03/31 13:28:02;;;;;;;28.27;4.80;;;;;;;;;;4955386;28;20042;-67
2024/03/31 13:30:31;;;;;;;26.73;4.43;;;;;;;;;;4951845;28;20038;-66
2024/03/31 13:32:56;;;;;;;28.23;5.05;;;;;;;;;;4951149;28;20046;-56
2024/03/31 13:35:21;;;;;;;28.98;4.47;;;;;;;;;;4951070;28;20035;-63
2024/03/31 13:37:47;;;;;;;25.20;4.68;;;;;;;;;;4949919;28;20035;-58
2024/03/31 13:40:12;;;;;;;31.02;4.95;;;;;;;;;;4953309;28;20518;-64
2024/03/31 13:42:40;;;;;;;25.42;4.95;;;;;;;;;;4955850;28;20031;-58
2024/03/31 13:45:06;;;;;;;25.52;5.28;;;;;;;;;;4951818;28;20564;-58
2024/03/31 13:47:31;;;;;;;24.58;4.65;;;;;;;;;;4957776;28;20035;-62
2024/03/31 13:49:56;;;;;;;24.63;4.60;;;;;;;;;;4964621;28;20023;-64
2024/03/31 13:52:22;;;;;;;27.45;4.30;;;;;;;;;;4953906;28;20539;-59
2024/03/31 13:54:47;;;;;;;32.58;5.03;;;;;;;;;;4951325;28;20589;-57
2024/03/31 13:57:12;;;;;;;29.48;5.82;;;;;;;;;;4947642;28;20039;-62
2024/03/31 13:59:38;;;;;;;29.85;5.35;;;;;;;;;;4938745;28;20107;-61
2024/03/31 14:02:03;;;;;;;30.25;5.05;;;;;;;;;;4935192;28;20031;-61
2024/03/31 14:04:28;;;;;;;32.88;5.13;;;;;;;;;;4937803;28;20079;-60
2024/03/31 14:06:54;;;;;;;28.90;5.15;;;;;;;;;;4934859;28;20039;-57
2024/03/31 14:09:19;;;;;;;29.17;5.15;;;;;;;;;;4934674;28;20046;-57
2024/03/31 14:11:44;;;;;;;34.08;4.90;;;;;;;;;;4937315;28;20044;-56
2024/03/31 14:14:10;;;;;;;28.05;5.18;;;;;;;;;;4934427;28;20058;-57
2024/03/31 14:16:35;;;;;;;33.97;5.50;;;;;;;;;;4935120;28;20131;-57
2024/03/31 14:19:00;;;;;;;33.90;5.97;;;;;;;;;;4935443;28;20515;-57
2024/03/31 14:21:26;;;;;;;36.03;5.57;;;;;;;;;;4943768;28;20146;-57
2024/03/31 14:23:51;;;;;;;35.97;5.10;;;;;;;;;;4951874;28;20134;-57
2024/03/31 14:26:16;;;;;;;33.78;5.13;;;;;;;;;;4951102;28;20049;-58
2024/03/31 14:28:41;;;;;;;37.75;5.93;;;;;;;;;;4952403;28;20364;-58
2024/03/31 14:31:07;;;;;;;38.00;6.18;;;;;;;;;;4954549;28;20046;-58